Time;durP1;ratioP1;P1;durP2;ratioP2;P2;SDS_P1;SDS_P2;PMS_P1;PMS_P2;Temp;Humidity;BMP_temperature;BMP_pressure;BME280_temperature;BME280_humidity;BME280_pressure;Samples;Min_cycle;Max_cycle;Signal;HPM_P1;HPM_P2
2023/05/29 00:01:59;;;;;;;0.98;0.88;;;;;;;17.01;100.00;99923.66;4874918;29;20239;-80
2023/05/29 00:04:26;;;;;;;0.70;0.70;;;;;;;17.12;100.00;99930.47;4876153;29;20256;-80
2023/05/29 00:06:55;;;;;;;0.85;0.82;;;;;;;17.06;100.00;99935.09;4874847;29;20247;-80
2023/05/29 00:09:22;;;;;;;0.93;0.82;;;;;;;16.96;100.00;99923.78;4880617;29;20235;-80
2023/05/29 00:11:52;;;;;;;1.13;1.00;;;;;;;16.85;100.00;99913.31;4875750;29;20251;-81
2023/05/29 00:14:22;;;;;;;1.17;1.08;;;16.50;97.80;;;16.90;100.00;99916.78;4874660;29;20229;-80
2023/05/29 00:16:52;;;;;;;2.25;1.23;;;;;;;16.88;100.00;99910.56;4872534;29;20240;-80
2023/05/29 00:19:19;;;;;;;1.10;0.80;;;;;;;16.88;100.00;99923.94;4878171;29;20245;-80
2023/05/29 00:21:48;;;;;;;0.85;0.82;;;;;;;16.87;100.00;99945.34;4877172;29;20248;-80
2023/05/29 00:24:16;;;;;;;1.10;0.95;;;16.50;98.10;;;16.94;100.00;99930.94;4875941;29;20659;-80
2023/05/29 00:26:44;;;;;;;0.60;0.60;;;;;;;16.90;100.00;99939.91;4881306;29;20763;-80
2023/05/29 00:29:12;;;;;;;0.90;0.80;;;;;;;16.81;100.00;99914.31;4876973;29;20264;-80
2023/05/29 00:31:39;;;;;;;1.00;0.90;;;;;;;16.73;100.00;99915.41;4877007;29;20240;-80
2023/05/29 00:34:06;;;;;;;0.73;0.73;;;;;;;16.72;100.00;99929.69;4877789;29;20272;-79
2023/05/29 00:36:34;;;;;;;0.80;0.80;;;16.30;98.30;;;16.71;100.00;99935.94;4876279;29;20693;-80
2023/05/29 00:39:02;;;;;;;1.35;1.25;;;;;;;16.64;100.00;99948.53;4876957;29;20252;-80
2023/05/29 00:41:30;;;;;;;0.70;0.70;;;;;;;16.75;100.00;99946.50;4875398;29;20243;-80
2023/05/29 00:43:57;;;;;;;0.82;0.80;;;;;;;16.68;100.00;99944.91;4873457;29;20233;-80
2023/05/29 00:46:25;;;;;;;1.00;0.90;;;;;;;16.69;100.00;99960.00;4873007;29;20237;-80
2023/05/29 00:48:52;;;;;;;0.75;0.75;;;;;;;16.59;100.00;99945.97;4889317;29;20268;-79
2023/05/29 00:51:20;;;;;;;1.20;0.93;;;16.20;98.70;;;16.57;100.00;99954.91;4887559;29;20228;-80
2023/05/29 00:53:48;;;;;;;0.73;0.70;;;16.10;98.70;;;16.44;100.00;99956.09;4873805;29;20244;-80
2023/05/29 00:56:16;;;;;;;0.80;0.80;;;;;;;16.43;100.00;99960.56;4888527;29;20240;-80
2023/05/29 00:58:44;;;;;;;0.80;0.80;;;15.90;98.70;;;16.48;100.00;99972.00;4890117;29;20236;-80
2023/05/29 01:01:11;;;;;;;0.70;0.70;;;;;;;16.37;100.00;99963.38;4889635;29;20245;-80
2023/05/29 01:03:39;;;;;;;0.80;0.73;;;;;;;16.34;100.00;99966.09;4873369;29;20243;-80
2023/05/29 01:06:07;;;;;;;1.10;1.00;;;;;;;16.38;100.00;99990.94;4889695;29;20238;-80
2023/05/29 01:08:35;;;;;;;0.80;0.80;;;;;;;16.32;100.00;99997.28;4880129;29;20252;-80
2023/05/29 01:11:51;;;;;;;0.80;0.80;;;15.90;98.80;;;16.23;100.00;99987.69;4892350;29;20247;-80
2023/05/29 01:14:33;;;;;;;1.00;0.90;;;15.90;99.30;;;16.18;100.00;99994.03;4865390;29;20799;-80
2023/05/29 01:17:21;;;;;;;1.00;0.88;;;15.80;99.00;;;16.13;100.00;99999.47;4875962;29;20240;-80
2023/05/29 01:20:06;;;;;;;0.73;0.73;;;15.70;99.90;;;16.09;100.00;100003.09;4876803;29;20239;-79
2023/05/29 01:22:52;;;;;;;1.10;1.00;;;;;;;15.93;100.00;100009.66;4869232;29;20317;-80
2023/05/29 01:25:31;;;;;;;1.00;0.80;;;;;;;15.88;100.00;100036.41;4883604;29;20236;-80
2023/05/29 01:28:03;;;;;;;0.68;0.68;;;15.50;99.80;;;15.81;100.00;100037.44;4891318;29;20240;-80
2023/05/29 01:30:32;;;;;;;0.90;0.80;;;15.50;99.90;;;15.84;100.00;100056.03;4876923;29;20232;-80
2023/05/29 01:33:00;;;;;;;0.82;0.80;;;;;;;15.78;100.00;100061.47;4874759;29;20259;-80
2023/05/29 01:35:29;;;;;;;1.13;0.95;;;15.40;99.90;;;15.73;100.00;100082.00;4876067;29;20236;-80
2023/05/29 01:37:56;;;;;;;0.93;0.82;;;;;;;15.69;100.00;100072.31;4877554;29;20236;-80
2023/05/29 01:40:24;;;;;;;0.90;0.80;;;;;;;15.65;100.00;100087.47;4873902;29;20229;-80
2023/05/29 01:42:51;;;;;;;0.70;0.70;;;;;;;15.68;100.00;100116.75;4870191;29;20232;-80
2023/05/29 01:45:19;;;;;;;0.70;0.70;;;;;;;15.60;100.00;100117.75;4890339;29;20244;-80
2023/05/29 01:47:47;;;;;;;0.80;0.80;;;;;;;15.71;100.00;100146.94;4893885;29;20669;-81
2023/05/29 01:50:18;;;;;;;0.73;0.73;;;15.30;99.90;;;15.71;100.00;100145.13;4890459;29;20361;-79
2023/05/29 01:52:45;;;;;;;1.65;1.55;;;;;;;15.62;100.00;100134.63;4875439;29;20241;-80
2023/05/29 01:55:13;;;;;;;0.80;0.80;;;;;;;15.51;100.00;100142.72;4893578;29;20249;-80
2023/05/29 01:57:41;;;;;;;1.00;0.90;;;15.20;99.90;;;15.54;100.00;100150.66;4889637;29;20249;-80
2023/05/29 02:00:10;;;;;;;0.80;0.80;;;15.10;99.90;;;15.40;100.00;100146.47;4880613;29;20685;-80
2023/05/29 02:02:41;;;;;;;0.98;0.90;;;15.10;99.90;;;15.41;100.00;100167.75;4879073;29;20233;-80
2023/05/29 02:05:08;;;;;;;0.80;0.80;;;15.00;99.90;;;15.32;100.00;100159.91;4878456;29;20240;-80
2023/05/29 02:07:39;;;;;;;0.85;0.80;;;;;;;15.32;100.00;100187.41;4878350;29;20236;-79
2023/05/29 02:10:06;;;;;;;0.60;0.60;;;;;;;15.34;100.00;100187.41;4880332;29;20240;-80
2023/05/29 02:12:34;;;;;;;0.75;0.75;;;;;;;15.23;100.00;100192.88;4879232;29;20240;-80
2023/05/29 02:15:01;;;;;;;0.70;0.70;;;;;;;15.26;100.00;100194.63;4880709;29;20255;-80
2023/05/29 02:17:29;;;;;;;0.77;0.77;;;;;;;15.17;100.00;100195.63;4879269;29;20240;-80
2023/05/29 02:19:56;;;;;;;0.75;0.75;;;;;;;15.14;100.00;100208.09;4879883;29;20270;-80
2023/05/29 02:22:24;;;;;;;0.95;0.85;;;;;;;15.10;100.00;100214.38;4878558;29;20232;-80
2023/05/29 02:24:51;;;;;;;0.98;0.88;;;;;;;15.04;100.00;100210.00;4877629;29;20248;-80
2023/05/29 02:27:20;;;;;;;1.20;1.10;;;;;;;15.12;100.00;100241.88;4876476;29;20721;-80
2023/05/29 02:29:47;;;;;;;0.70;0.70;;;;;;;15.07;100.00;100230.38;4877669;29;20248;-80
2023/05/29 02:32:14;;;;;;;0.80;0.80;;;;;;;14.99;100.00;100231.38;4873396;29;20241;-79
2023/05/29 02:34:42;;;;;;;1.02;0.93;;;;;;;14.95;100.00;100237.63;4877865;29;20241;-80
2023/05/29 02:37:10;;;;;;;0.80;0.80;;;;;;;14.95;100.00;100242.06;4878205;29;20236;-79
2023/05/29 02:39:37;;;;;;;1.67;1.58;;;;;;;14.91;100.00;100251.00;4879232;29;20296;-80
2023/05/29 02:42:05;;;;;;;1.02;0.93;;;;;;;14.89;100.00;100243.03;4876160;29;20379;-80
2023/05/29 02:44:33;;;;;;;1.02;0.88;;;;;;;14.82;100.00;100244.00;4875798;29;20236;-80
2023/05/29 02:47:00;;;;;;;0.75;0.75;;;;;;;14.84;100.00;100268.81;4876397;29;20240;-79
2023/05/29 02:49:27;;;;;;;0.65;0.65;;;;;;;14.87;100.00;100276.78;4891716;29;20250;-79
2023/05/29 02:51:56;;;;;;;0.75;0.75;;;;;;;14.88;100.00;100270.56;4876126;29;20240;-80
2023/05/29 02:54:25;;;;;;;0.80;0.80;;;14.50;99.90;;;14.84;100.00;100263.50;4873638;29;20304;-80
2023/05/29 02:56:53;;;;;;;0.80;0.80;;;;;;;14.80;100.00;100259.09;4876746;29;20268;-80
2023/05/29 02:59:20;;;;;;;0.60;0.60;;;;;;;14.87;100.00;100271.44;4877962;29;20300;-80
2023/05/29 03:01:48;;;;;;;1.00;0.90;;;;;;;14.86;100.00;100274.13;4878060;29;20245;-80
2023/05/29 03:04:17;;;;;;;0.80;0.80;;;;;;;14.79;100.00;100281.31;4884252;29;20249;-80
2023/05/29 03:06:45;;;;;;;0.95;0.88;;;;;;;14.83;100.00;100300.78;4883003;29;20247;-80
2023/05/29 03:09:13;;;;;;;1.20;1.10;;;;;;;14.79;100.00;100294.63;4877946;29;20255;-79
2023/05/29 03:11:40;;;;;;;0.80;0.80;;;;;;;14.65;100.00;100283.22;4877190;29;20236;-79
2023/05/29 03:14:08;;;;;;;0.80;0.80;;;;;;;14.70;100.00;100292.03;4876783;29;20292;-79
2023/05/29 03:16:38;;;;;;;0.82;0.70;;;;;;;14.66;100.00;100308.94;4873912;29;20243;-78
2023/05/29 03:19:07;;;;;;;0.80;0.80;;;;;;;14.70;100.00;100316.00;4875978;29;20697;-79
2023/05/29 03:21:35;;;;;;;0.73;0.73;;;;;;;14.68;100.00;100320.47;4875307;29;20264;-78
2023/05/29 03:24:03;;;;;;;0.70;0.70;;;;;;;14.65;100.00;100320.47;4869626;29;20247;-79
2023/05/29 03:26:31;;;;;;;1.00;0.90;;;;;;;14.57;100.00;100325.88;4869969;29;20224;-77
2023/05/29 03:28:59;;;;;;;0.88;0.80;;;;;;;14.72;100.00;100360.34;4872833;29;20236;-78
2023/05/29 03:31:26;;;;;;;1.27;1.02;;;14.20;99.90;;;14.63;100.00;100355.09;4868831;29;20239;-77
2023/05/29 03:33:54;;;;;;;0.80;0.80;;;;;;;14.52;100.00;100348.09;4887230;29;20236;-80
2023/05/29 03:36:22;;;;;;;1.17;1.08;;;;;;;14.51;100.00;100341.03;4874766;29;20243;-77
2023/05/29 03:38:50;;;;;;;0.60;0.60;;;;;;;14.51;100.00;100359.66;4877301;29;20240;-76
2023/05/29 03:41:17;;;;;;;0.70;0.70;;;;;;;14.47;100.00;100371.22;4876490;29;20256;-77
2023/05/29 03:43:45;;;;;;;1.00;0.90;;;;;;;14.44;100.00;100368.56;4889457;29;20268;-78
2023/05/29 03:46:13;;;;;;;0.82;0.80;;;;;;;14.50;100.00;100385.38;4874456;29;20252;-78
2023/05/29 03:48:41;;;;;;;1.38;1.05;;;;;;;14.46;100.00;100396.06;4875314;29;20331;-78
2023/05/29 03:51:10;;;;;;;0.70;0.70;;;;;;;14.45;100.00;100399.59;4876369;29;20237;-77
2023/05/29 03:53:37;;;;;;;0.80;0.80;;;;;;;14.48;100.00;100402.25;4885261;29;20260;-77
2023/05/29 03:56:05;;;;;;;1.00;0.90;;;;;;;14.49;100.00;100410.22;4875539;29;20247;-77
2023/05/29 03:58:33;;;;;;;2.95;2.65;;;;;;;14.46;100.00;100415.56;5426239;23;20243;-82
2023/05/29 04:01:00;;;;;;;2.33;1.67;;;;;;;14.52;100.00;100419.94;4878858;29;20240;-79
2023/05/29 04:03:29;;;;;;;1.10;1.00;;;14.10;99.90;;;14.44;100.00;100408.47;4887956;29;20237;-78
2023/05/29 04:05:56;;;;;;;1.38;1.02;;;;;;;14.47;100.00;100425.31;4902478;29;20240;-80
2023/05/29 04:08:25;;;;;;;0.65;0.65;;;;;;;14.49;100.00;100436.81;4893851;29;20231;-78
2023/05/29 04:10:55;;;;;;;0.60;0.60;;;;;;;14.52;100.00;100438.59;4876758;29;20248;-78
2023/05/29 04:13:23;;;;;;;0.80;0.80;;;;;;;14.49;100.00;100443.94;4903134;29;20239;-78
2023/05/29 04:15:53;;;;;;;9.98;3.42;;;14.20;99.90;;;14.55;100.00;100454.53;4946203;23;20240;-75
2023/05/29 04:18:21;;;;;;;0.30;0.30;;;14.30;99.90;;;14.48;100.00;100463.44;4905359;29;20326;-75
2023/05/29 04:20:48;;;;;;;0.30;0.30;;;;;;;14.49;100.00;100466.09;4883021;29;20248;-76
2023/05/29 04:23:16;;;;;;;0.40;0.40;;;14.10;99.90;;;14.51;100.00;100479.38;4889837;29;20255;-75
2023/05/29 04:25:43;;;;;;;0.40;0.40;;;;;;;14.51;100.00;100482.94;4894960;29;20251;-77
2023/05/29 04:28:11;;;;;;;0.90;0.90;;;;;;;14.55;100.00;100500.66;4895922;29;20227;-77
2023/05/29 04:30:39;;;;;;;0.40;0.40;;;;;;;14.59;100.00;100507.72;4896910;29;20239;-78
2023/05/29 04:33:06;;;;;;;0.40;0.40;;;14.40;99.90;;;14.61;100.00;100503.28;4899768;29;20228;-75
2023/05/29 04:35:34;;;;;;;1.33;1.23;;;14.20;99.90;;;14.64;100.00;100513.91;4891197;29;20267;-77
2023/05/29 04:38:04;;;;;;;1.25;0.75;;;;;;;14.69;100.00;100508.53;4875163;29;20243;-76
2023/05/29 04:40:33;;;;;;;0.40;0.40;;;;;;;14.72;100.00;100527.16;4889033;29;20333;-76
2023/05/29 04:43:09;;;;;;;1.00;0.90;;;14.40;99.90;;;14.81;100.00;100539.53;4886450;29;20227;-75
2023/05/29 04:45:36;;;;;;;0.93;0.90;;;;;;;14.76;100.00;100544.88;4888781;29;20246;-75
2023/05/29 04:48:04;;;;;;;0.73;0.73;;;14.70;99.90;;;14.77;100.00;100545.75;4889997;29;20244;-78
2023/05/29 04:50:33;;;;;;;0.73;0.73;;;;;;;14.84;100.00;100553.69;4887058;29;20235;-77
2023/05/29 04:53:00;;;;;;;0.50;0.50;;;14.40;99.90;;;14.88;100.00;100565.22;4888103;29;20258;-77
2023/05/29 04:55:27;;;;;;;0.80;0.80;;;14.70;99.90;;;14.91;100.00;100568.75;4893657;29;20746;-78
2023/05/29 04:57:54;;;;;;;1.27;0.98;;;;;;;14.98;100.00;100574.91;4888836;23;20245;-77
2023/05/29 05:00:22;;;;;;;1.05;0.98;;;14.60;99.90;;;15.01;100.00;100591.75;4910301;29;20242;-77
2023/05/29 05:02:50;;;;;;;0.40;0.40;;;;;;;15.02;100.00;100588.19;4907162;29;20246;-77
2023/05/29 05:05:18;;;;;;;0.38;0.38;;;14.70;99.90;;;15.02;100.00;100590.88;4904111;29;20236;-78
2023/05/29 05:07:45;;;;;;;0.43;0.43;;;;;;;15.09;100.00;100601.47;4909727;29;20239;-77
2023/05/29 05:10:12;;;;;;;0.50;0.50;;;14.70;99.90;;;15.08;100.00;100615.69;4907187;29;20255;-77
2023/05/29 05:12:40;;;;;;;0.45;0.45;;;;;;;15.10;100.00;100627.22;4914192;29;20243;-77
2023/05/29 05:15:08;;;;;;;0.73;0.65;;;14.80;99.90;;;15.14;100.00;100637.84;4913094;29;20247;-78
2023/05/29 05:17:36;;;;;;;0.70;0.70;;;14.70;99.90;;;15.14;100.00;100636.97;4909940;29;20273;-77
2023/05/29 05:20:05;;;;;;;0.70;0.63;;;;;;;15.19;100.00;100646.69;4913476;29;20238;-78
2023/05/29 05:22:33;;;;;;;0.55;0.55;;;;;;;15.23;100.00;100655.53;4913479;29;20235;-77
2023/05/29 05:25:00;;;;;;;0.60;0.60;;;;;;;15.27;100.00;100647.53;4914964;29;20234;-78
2023/05/29 05:27:27;;;;;;;0.50;0.50;;;15.10;99.90;;;15.33;100.00;100667.91;4915695;29;20239;-77
2023/05/29 05:29:55;;;;;;;0.80;0.80;;;15.00;99.90;;;15.43;100.00;100668.75;4910098;29;20242;-77
2023/05/29 05:32:22;;;;;;;0.57;0.57;;;;;;;15.50;100.00;100670.47;4917023;29;20264;-78
2023/05/29 05:34:50;;;;;;;0.52;0.52;;;;;;;15.41;100.00;100660.75;4913732;29;20239;-76
2023/05/29 05:37:17;;;;;;;0.50;0.50;;;;;;;15.46;100.00;100669.59;4909681;29;20247;-76
2023/05/29 05:39:45;;;;;;;0.60;0.60;;;;;;;15.57;100.00;100667.78;4915023;29;20250;-78
2023/05/29 05:42:12;;;;;;;0.60;0.60;;;15.10;99.90;;;15.61;100.00;100666.88;4914296;29;20253;-77
2023/05/29 05:44:39;;;;;;;0.75;0.70;;;;;;;15.76;100.00;100676.53;4912466;29;20321;-78
2023/05/29 05:47:07;;;;;;;0.70;0.70;;;;;;;15.80;100.00;100675.63;4923302;29;20689;-78
2023/05/29 05:49:34;;;;;;;0.52;0.52;;;15.50;99.90;;;15.90;100.00;100679.09;4905404;29;20239;-78
2023/05/29 05:52:01;;;;;;;0.65;0.65;;;15.50;99.90;;;15.91;100.00;100681.75;4911044;29;20234;-77
2023/05/29 05:54:28;;;;;;;0.60;0.57;;;15.60;99.90;;;15.98;100.00;100686.13;4916723;29;20235;-77
2023/05/29 05:56:56;;;;;;;0.80;0.80;;;;;;;16.07;100.00;100701.16;4918014;29;20257;-77
2023/05/29 05:59:24;;;;;;;1.23;1.08;;;;;;;16.15;100.00;100687.75;4930662;29;20247;-78
2023/05/29 06:01:51;;;;;;;0.60;0.60;;;;;;;16.24;100.00;100693.00;4910160;29;20260;-78
2023/05/29 06:04:18;;;;;;;0.55;0.55;;;16.00;99.90;;;16.17;100.00;100670.81;4924983;29;20238;-78
2023/05/29 06:06:46;;;;;;;0.50;0.50;;;15.90;99.90;;;16.32;100.00;100667.09;4924871;29;20235;-78
2023/05/29 06:09:13;;;;;;;0.60;0.60;;;;;;;16.43;100.00;100667.00;4917589;29;20302;-78
2023/05/29 06:11:41;;;;;;;1.02;0.93;;;;;;;16.40;100.00;100651.00;4914824;29;20242;-77
2023/05/29 06:14:08;;;;;;;1.75;1.50;;;;;;;16.40;100.00;100641.22;4916128;29;20278;-78
2023/05/29 06:16:35;;;;;;;1.00;0.90;;;16.00;99.90;;;16.42;100.00;100627.84;4936172;29;20251;-79
2023/05/29 06:19:04;;;;;;;0.50;0.50;;;16.20;99.90;;;16.64;100.00;100643.59;4915953;29;20314;-78
2023/05/29 06:21:32;;;;;;;0.70;0.68;;;16.30;99.90;;;16.76;100.00;100647.03;4915505;29;20250;-78
2023/05/29 06:23:59;;;;;;;0.77;0.75;;;;;;;16.87;100.00;100645.13;4916271;29;20259;-77
2023/05/29 06:26:27;;;;;;;0.88;0.70;;;;;;;16.67;100.00;100604.44;4915801;29;20261;-78
2023/05/29 06:28:55;;;;;;;1.00;0.85;;;;;;;16.58;100.00;100592.94;4915204;29;20306;-78
2023/05/29 06:31:23;;;;;;;0.95;0.80;;;;;;;16.79;100.00;100614.94;4916714;29;20607;-78
2023/05/29 06:33:50;;;;;;;1.58;1.20;;;;;;;16.94;100.00;100623.66;4917059;29;20250;-77
2023/05/29 06:36:18;;;;;;;0.60;0.60;;;;;;;16.90;100.00;100588.97;4916307;29;20269;-78
2023/05/29 06:38:49;;;;;;;0.70;0.70;;;16.60;99.90;;;16.94;100.00;100580.94;4913551;29;20242;-76
2023/05/29 06:41:16;;;;;;;0.80;0.70;;;16.80;99.90;;;17.29;100.00;100598.22;4915855;29;20231;-76
2023/05/29 06:43:44;;;;;;;0.60;0.60;;;;;;;17.19;100.00;100581.44;4915822;29;20234;-76
2023/05/29 06:46:11;;;;;;;0.80;0.70;;;17.00;99.90;;;17.31;100.00;100585.72;4915209;29;20354;-76
2023/05/29 06:48:38;;;;;;;0.70;0.70;;;;;;;17.49;100.00;100589.88;4915167;29;20234;-75
2023/05/29 06:51:08;;;;;;;0.63;0.60;;;;;;;17.65;100.00;100566.41;4914823;29;20243;-76
2023/05/29 06:53:36;;;;;;;0.60;0.57;;;17.40;99.90;;;17.79;100.00;100599.19;4914762;29;20742;-76
2023/05/29 06:56:04;;;;;;;0.50;0.50;;;;;;;17.77;100.00;100563.56;4914351;29;20253;-76
2023/05/29 06:58:32;;;;;;;1.00;0.88;;;;;;;17.70;100.00;100524.47;4911843;29;20325;-76
2023/05/29 07:01:59;;;;;;;0.65;0.65;;;17.60;99.90;;;18.06;100.00;100554.97;4922311;29;20230;-76
2023/05/29 07:04:26;;;;;;;1.17;1.02;;;;;;;17.84;100.00;100506.34;4909000;29;20254;-75
2023/05/29 07:06:54;;;;;;;1.00;0.90;;;;;;;18.07;100.00;100498.75;4911938;29;20283;-76
2023/05/29 07:09:21;;;;;;;0.68;0.68;;;17.80;99.90;;;18.43;100.00;100523.00;4914353;29;20247;-78
2023/05/29 07:11:48;;;;;;;0.63;0.63;;;;;;;18.25;100.00;100477.88;4929289;29;20231;-75
2023/05/29 07:14:15;;;;;;;0.60;0.60;;;;;;;18.29;100.00;100460.84;4910038;29;20246;-78
2023/05/29 07:16:42;;;;;;;0.80;0.80;;;18.10;99.90;;;18.13;100.00;100430.81;4916737;29;20250;-78
2023/05/29 07:19:13;;;;;;;1.40;0.90;;;;;;;18.37;100.00;100458.88;4912303;29;20231;-78
2023/05/29 07:21:48;;;;;;;0.90;0.73;;;18.40;99.90;;;18.65;100.00;100491.28;4919299;29;20325;-78
2023/05/29 07:24:15;;;;;;;0.73;0.60;;;18.20;99.90;;;18.63;100.00;100467.22;4918186;29;20235;-78
2023/05/29 07:26:43;;;;;;;1.10;0.90;;;;;;;18.76;100.00;100462.47;4916408;29;20246;-78
2023/05/29 07:29:11;;;;;;;1.45;1.35;;;;;;;18.63;100.00;100428.84;4917658;29;20231;-77
2023/05/29 07:31:40;;;;;;;1.13;1.02;;;;;;;19.00;100.00;100416.28;4924533;29;20259;-77
2023/05/29 07:34:07;;;;;;;1.05;0.85;;;18.80;99.90;;;19.03;100.00;100434.97;4922752;29;20242;-76
2023/05/29 07:36:35;;;;;;;1.27;1.02;;;18.70;99.90;;;19.18;100.00;100415.81;4920546;29;20242;-77
2023/05/29 07:39:05;;;;;;;0.90;0.82;;;18.40;99.90;;;18.83;100.00;100335.47;4916153;29;20239;-77
2023/05/29 07:41:32;;;;;;;0.70;0.60;;;;;;;19.06;100.00;100333.03;4919657;29;20238;-78
2023/05/29 07:44:00;;;;;;;1.17;0.70;;;;;;;19.60;100.00;100339.63;4921095;29;20243;-77
2023/05/29 07:46:27;;;;;;;0.70;0.70;;;;;;;19.26;100.00;100303.00;4917334;29;20239;-78
2023/05/29 07:48:55;;;;;;;1.40;1.10;;;;;;;19.56;100.00;100346.88;4918295;29;20234;-78
2023/05/29 07:51:24;;;;;;;0.88;0.80;;;;;;;19.62;100.00;100274.28;4922297;29;20235;-78
2023/05/29 07:53:51;;;;;;;0.70;0.60;;;;;;;19.60;100.00;100245.75;4922959;29;20238;-78
2023/05/29 07:56:19;;;;;;;1.00;0.82;;;;;;;19.77;100.00;100260.38;4916980;29;20231;-77
2023/05/29 07:58:46;;;;;;;0.70;0.70;;;19.40;99.50;;;19.85;100.00;100217.22;4919746;29;20254;-77
2023/05/29 08:01:14;;;;;;;1.05;0.77;;;;;;;19.79;100.00;100191.44;4919615;29;20239;-78
2023/05/29 08:03:43;;;;;;;1.73;1.63;;;;;;;20.33;100.00;100243.34;4916590;29;20258;-79
2023/05/29 08:06:11;;;;;;;1.65;1.33;;;;;;;19.99;100.00;100160.38;4921640;29;20235;-78
2023/05/29 08:08:38;;;;;;;1.10;0.80;;;;;;;20.10;100.00;100147.47;4923053;29;20263;-79
2023/05/29 08:11:06;;;;;;;1.40;1.00;;;;;;;20.61;100.00;100214.63;4923252;29;20238;-78
2023/05/29 08:13:34;;;;;;;1.23;0.95;;;;;;;20.59;100.00;100191.44;4924498;29;20239;-78
2023/05/29 08:16:01;;;;;;;1.52;1.15;;;20.30;99.50;;;20.76;100.00;100172.91;4924347;29;20457;-79
2023/05/29 08:18:32;;;;;;;1.25;1.00;;;20.40;98.40;;;20.80;100.00;100134.22;4922498;29;20243;-79
2023/05/29 08:21:00;;;;;;;0.95;0.73;;;;;;;20.97;100.00;100139.88;4913721;29;20243;-79
2023/05/29 08:23:28;;;;;;;1.52;1.17;;;;;;;21.13;100.00;100161.66;4924599;29;20243;-78
2023/05/29 08:25:58;;;;;;;0.70;0.60;;;;;;;21.39;100.00;100157.97;4923073;29;20231;-78
2023/05/29 08:28:26;;;;;;;0.82;0.60;;;;;;;21.34;100.00;100101.69;4918804;29;20239;-79
2023/05/29 08:30:54;;;;;;;1.17;0.85;;;;;;;21.47;100.00;100063.50;4925202;29;20241;-79
2023/05/29 08:33:21;;;;;;;1.58;1.15;;;;;;;21.69;100.00;100061.69;4916078;29;20314;-80
2023/05/29 08:35:48;;;;;;;1.00;0.80;;;21.30;98.30;;;21.84;100.00;100061.03;4910808;29;20248;-80
2023/05/29 08:38:17;;;;;;;0.43;0.43;;;;;;;21.44;100.00;99929.13;4916520;29;20234;-79
2023/05/29 08:40:44;;;;;;;1.35;1.25;;;21.40;95.70;;;21.79;100.00;99904.22;4917144;29;20327;-79
2023/05/29 08:43:16;;;;;;;1.02;0.82;;;21.50;96.50;;;22.06;100.00;99936.25;4917267;29;20230;-79
2023/05/29 08:45:45;;;;;;;0.70;0.63;;;21.60;97.40;;;21.90;100.00;99923.44;4914748;29;20245;-79
2023/05/29 08:48:13;;;;;;;1.17;0.88;;;21.40;97.90;;;21.89;100.00;99945.06;4909273;29;20773;-80
2023/05/29 08:50:46;;;;;;;0.75;0.68;;;21.50;96.10;;;21.83;100.00;99851.13;4915958;29;20242;-80
2023/05/29 08:53:18;;;;;;;2.00;1.15;;;22.00;96.60;;;22.41;100.00;99902.31;4911874;29;20238;-79
2023/05/29 08:55:48;;;;;;;0.98;0.70;;;22.30;96.70;;;22.71;100.00;99891.84;4915797;29;20717;-79
2023/05/29 08:58:15;;;;;;;0.90;0.70;;;;;;;22.18;100.00;99756.16;4916583;29;20249;-80
2023/05/29 09:00:45;;;;;;;1.30;1.10;;;22.20;96.70;;;22.51;100.00;99837.13;4916347;29;20246;-79
2023/05/29 09:03:13;;;;;;;0.95;0.63;;;;;;;22.66;100.00;99768.97;4916389;29;20242;-79
2023/05/29 09:05:41;;;;;;;1.08;0.80;;;;;;;23.06;100.00;99783.09;4916003;29;20242;-79
2023/05/29 09:08:11;;;;;;;1.77;1.33;;;;;;;23.12;100.00;99741.47;4913962;29;20262;-80
2023/05/29 09:10:41;;;;;;;1.02;0.70;;;22.70;95.80;;;23.12;100.00;99750.41;4909297;29;20262;-80
2023/05/29 09:13:09;;;;;;;2.03;1.48;;;;;;;23.08;98.71;99665.25;4905220;29;20234;-79
2023/05/29 09:15:39;;;;;;;1.85;1.45;;;;;;;23.31;97.75;99681.03;4910242;29;20230;-78
2023/05/29 09:18:08;;;;;;;2.35;1.50;;;;;;;23.28;91.22;99578.69;4904886;29;20234;-80
2023/05/29 09:20:36;;;;;;;2.00;1.48;;;;;;;23.40;97.47;99636.47;4912268;29;20241;-80
2023/05/29 09:23:07;;;;;;;3.63;2.60;;;;;;;23.36;94.14;99580.94;4903663;29;20238;-78
2023/05/29 09:25:40;;;;;;;1.77;1.00;;;23.40;95.10;;;23.80;100.00;99682.88;4914424;29;20265;-79
2023/05/29 09:28:08;;;;;;;2.17;1.27;;;23.50;94.00;;;24.05;93.67;99622.91;4909362;29;20246;-80
2023/05/29 09:31:14;;;;;;;1.17;0.88;;;23.50;93.00;;;23.43;90.81;99481.66;4921305;29;20321;-80
2023/05/29 09:33:51;;;;;;;0.90;0.70;;;23.50;94.00;;;23.96;94.99;99586.50;4919341;29;20265;-80
2023/05/29 09:36:23;;;;;;;1.23;0.93;;;23.60;93.70;;;24.17;94.22;99587.03;4917633;29;20234;-80
2023/05/29 09:38:51;;;;;;;0.80;0.60;;;;;;;24.51;92.70;99596.69;4918614;29;20242;-80
2023/05/29 09:41:26;;;;;;;1.02;0.80;;;;;;;24.09;95.17;99556.94;4919578;29;20230;-79
2023/05/29 09:43:54;;;;;;;0.93;0.70;;;24.00;93.20;;;24.32;93.31;99545.63;4920764;29;20234;-79
2023/05/29 09:46:22;;;;;;;1.30;0.95;;;;;;;24.17;90.40;99457.38;4916725;29;20273;-80
2023/05/29 09:48:49;;;;;;;1.35;0.90;;;23.90;92.30;;;24.35;88.31;99468.91;4915921;29;20231;-79
2023/05/29 09:51:24;;;;;;;1.10;0.90;;;24.10;93.40;;;24.35;90.56;99472.47;4917343;29;20703;-79
2023/05/29 09:53:54;;;;;;;1.20;0.90;;;;;;;24.76;91.43;99512.25;4932803;29;20281;-79
2023/05/29 09:56:24;;;;;;;1.17;0.98;;;24.50;94.20;;;24.91;93.09;99523.94;4916927;29;20235;-80
2023/05/29 09:58:53;;;;;;;1.45;1.35;;;24.70;91.10;;;24.60;83.00;99347.44;4917564;29;20226;-79
2023/05/29 10:01:21;;;;;;;0.93;0.68;;;24.30;93.40;;;24.86;89.76;99437.69;4916880;29;20310;-80
2023/05/29 10:03:49;;;;;;;1.85;1.27;;;24.50;93.50;;;24.86;89.88;99438.56;4910833;29;20242;-80
2023/05/29 10:06:20;;;;;;;1.30;0.80;;;24.60;93.40;;;24.86;91.35;99419.63;4921695;29;20234;-80
2023/05/29 10:08:53;;;;;;;1.23;0.85;;;24.70;91.70;;;25.24;84.37;99386.47;4917614;29;20246;-79
2023/05/29 10:11:26;;;;;;;0.43;0.40;;;25.10;92.10;;;25.81;82.55;99415.94;4935735;29;20238;-80
2023/05/29 10:13:57;;;;;;;0.88;0.63;;;24.90;90.90;;;24.94;80.36;99218.13;4917436;29;20235;-79
2023/05/29 10:16:26;;;;;;;0.90;0.70;;;25.40;94.10;;;25.83;91.00;99458.19;4917428;29;20615;-79
2023/05/29 10:18:55;;;;;;;1.30;1.05;;;25.50;90.60;;;25.96;78.59;99332.75;4912160;29;20238;-79
2023/05/29 10:21:28;;;;;;;1.23;0.73;;;25.80;92.80;;;25.91;87.96;99398.06;4932404;29;20320;-78
2023/05/29 10:23:57;;;;;;;2.78;1.33;;;25.90;91.20;;;26.13;82.69;99348.69;4911686;29;20294;-79
2023/05/29 10:26:27;;;;;;;0.95;0.63;;;24.80;91.30;;;26.13;83.14;99340.53;4916720;29;20741;-80
2023/05/29 10:29:28;;;;;;;0.77;0.50;;;26.60;91.40;;;27.31;76.13;99351.66;4913237;29;20239;-80
2023/05/29 10:32:42;;;;;;;1.95;1.42;;;26.30;91.20;;;26.30;75.21;99161.31;4920358;29;20233;-80
2023/05/29 10:35:23;;;;;;;0.98;0.60;;;26.30;89.50;;;26.51;72.97;99122.72;4875702;29;20246;-78
2023/05/29 10:38:13;;;;;;;1.58;0.93;;;26.00;89.60;;;26.25;76.77;99103.03;4924954;29;20234;-79
2023/05/29 10:40:42;;;;;;;3.50;1.45;;;;;;;26.65;77.52;99168.63;4913909;29;20237;-79
2023/05/29 10:43:20;;;;;;;4.00;2.00;;;;;;;26.73;77.28;99160.75;4923291;29;20238;-79
2023/05/29 10:45:49;;;;;;;3.78;2.17;;;26.70;91.40;;;27.26;78.01;99234.41;4923528;29;20267;-79
2023/05/29 10:48:17;;;;;;;2.53;1.42;;;;;;;26.79;68.08;99008.41;4906504;29;20242;-78
2023/05/29 10:50:50;;;;;;;4.40;2.45;;;26.70;90.20;;;26.93;73.68;99085.94;4905647;29;20343;-77
2023/05/29 10:53:24;;;;;;;3.95;2.13;;;26.50;86.20;;;26.78;65.74;98963.28;4904954;29;20246;-78
2023/05/29 10:55:52;;;;;;;3.42;1.90;;;26.70;89.20;;;27.07;73.07;99077.59;4911013;29;20255;-80
2023/05/29 10:58:25;;;;;;;3.78;2.03;;;26.90;88.30;;;27.16;70.47;99027.16;4905891;29;20735;-79
2023/05/29 11:00:56;;;;;;;2.63;1.67;;;27.20;86.30;;;27.34;68.01;99021.09;4915625;29;20239;-79
2023/05/29 11:03:25;;;;;;;3.20;1.55;;;27.50;85.50;;;27.90;62.00;98957.63;4908354;29;20270;-80